METAR Data
IDs: Format: Raw Decoded Include TAF

Data at: 1936 UTC 23 Sep 2018

METAR for:PADK (Adak (NAS), AK, US)
Text:PADK 231856Z AUTO 04004KT 10SM FEW036 BKN047 OVC060 08/07 A2985 RMK AO2 SLP106 T00780072
Temperature: 7.8°C ( 46°F)
Dewpoint: 7.2°C ( 45°F) [RH = 96%]
Pressure (altimeter):29.85 inches Hg (1010.9 mb) [Sea level pressure: 1010.6 mb]
Winds:from the NE (40 degrees) at 5 MPH (4 knots; 2.1 m/s)
Visibility:10 or more sm (16+ km)
Ceiling:4700 feet AGL
Clouds: few clouds at 3600 feet AGL, broken clouds at 4700 feet AGL, overcast cloud deck at 6000 feet AGL
QC Flag:automated observation with no human augmentation
Text:PADK 231756Z AUTO 00000KT 10SM BKN035 BKN041 OVC050 07/06 A2984 RMK AO2 SLP104 T00670061 10067 20044 53006
Temperature: 6.7°C ( 44°F)
Dewpoint: 6.1°C ( 43°F) [RH = 96%]
Pressure (altimeter):29.84 inches Hg (1010.6 mb) [Sea level pressure: 1010.4 mb]
Winds:calm
Visibility:10 or more sm (16+ km)
Ceiling:3500 feet AGL
Clouds: broken clouds at 3500 feet AGL, broken clouds at 4100 feet AGL, overcast cloud deck at 5000 feet AGL
QC Flag:automated observation with no human augmentation
Text:PADK 231656Z AUTO 00000KT 10SM BKN065 OVC085 06/06 A2983 RMK AO2 SLP100 T00610056
Temperature: 6.1°C ( 43°F)
Dewpoint: 5.6°C ( 42°F) [RH = 97%]
Pressure (altimeter):29.83 inches Hg (1010.2 mb) [Sea level pressure: 1010.0 mb]
Winds:calm
Visibility:10 or more sm (16+ km)
Ceiling:6500 feet AGL
Clouds: broken clouds at 6500 feet AGL, overcast cloud deck at 8500 feet AGL
QC Flag:automated observation with no human augmentation
Text:PADK 231556Z AUTO 28003KT 10SM OVC060 06/05 A2982 RMK AO2 SLP098 T00610050
Temperature: 6.1°C ( 43°F)
Dewpoint: 5.0°C ( 41°F) [RH = 93%]
Pressure (altimeter):29.82 inches Hg (1009.9 mb) [Sea level pressure: 1009.8 mb]
Winds:from the W (280 degrees) at 3 MPH (3 knots; 1.5 m/s)
Visibility:10 or more sm (16+ km)
Ceiling:6000 feet AGL
Clouds: overcast cloud deck at 6000 feet AGL
QC Flag:automated observation with no human augmentation
Text:PADK 231456Z AUTO VRB03KT 10SM BKN060 05/04 A2982 RMK AO2 SLP098 T00500044 51000
Temperature: 5.0°C ( 41°F)
Dewpoint: 4.4°C ( 40°F) [RH = 96%]
Pressure (altimeter):29.82 inches Hg (1009.9 mb) [Sea level pressure: 1009.8 mb]
Winds:variable direction winds at 3 MPH (3 knots; 1.5 m/s)
Visibility:10 or more sm (16+ km)
Ceiling:6000 feet AGL
Clouds: broken clouds at 6000 feet AGL
QC Flag:automated observation with no human augmentation
Text:PADK 231356Z AUTO 23004KT 10SM CLR 05/04 A2982 RMK AO2 SLP097 T00500044
Temperature: 5.0°C ( 41°F)
Dewpoint: 4.4°C ( 40°F) [RH = 96%]
Pressure (altimeter):29.82 inches Hg (1009.9 mb) [Sea level pressure: 1009.7 mb]
Winds:from the SW (230 degrees) at 5 MPH (4 knots; 2.1 m/s)
Visibility:10 or more sm (16+ km)
Ceiling:at least 12,000 feet AGL
Clouds:sky clear below 12,000 feet AGL
QC Flag:automated observation with no human augmentation

TAF for:PADK (Adak (NAS), AK, US)
Text:No data found